sensor_id;sensor_type;location;lat;lon;timestamp;pressure;altitude;pressure_sealevel;temperature;humidity
9439;BME280;5176;42.622;25.386;2023-12-20T00:01:03;97547.56;;;3.51;92.08
9439;BME280;5176;42.622;25.386;2023-12-20T00:03:31;97551.78;;;3.54;92.27
9439;BME280;5176;42.622;25.386;2023-12-20T00:05:58;97550.16;;;3.51;92.01
9439;BME280;5176;42.622;25.386;2023-12-20T00:08:25;97559.53;;;3.55;92.01
9439;BME280;5176;42.622;25.386;2023-12-20T00:10:52;97551.78;;;3.54;92.19
9439;BME280;5176;42.622;25.386;2023-12-20T00:13:20;97551.19;;;3.46;92.08
9439;BME280;5176;42.622;25.386;2023-12-20T00:15:48;97557.19;;;3.46;92.88
9439;BME280;5176;42.622;25.386;2023-12-20T00:18:15;97559.91;;;3.43;93.61
9439;BME280;5176;42.622;25.386;2023-12-20T00:20:43;97554.78;;;3.40;93.22
9439;BME280;5176;42.622;25.386;2023-12-20T00:23:10;97554.78;;;3.42;93.40
9439;BME280;5176;42.622;25.386;2023-12-20T00:25:37;97556.88;;;3.29;94.00
9439;BME280;5176;42.622;25.386;2023-12-20T00:28:04;97557.97;;;3.20;94.38
9439;BME280;5176;42.622;25.386;2023-12-20T00:30:31;97556.06;;;3.27;95.19
9439;BME280;5176;42.622;25.386;2023-12-20T00:33:00;97556.03;;;3.28;94.94
9439;BME280;5176;42.622;25.386;2023-12-20T00:35:28;97562.84;;;3.31;94.85
9439;BME280;5176;42.622;25.386;2023-12-20T00:37:55;97554.13;;;3.35;94.71
9439;BME280;5176;42.622;25.386;2023-12-20T00:40:22;97545.34;;;3.39;94.73
9439;BME280;5176;42.622;25.386;2023-12-20T00:42:50;97540.09;;;3.41;95.16
9439;BME280;5176;42.622;25.386;2023-12-20T00:45:17;97519.75;;;3.28;95.68
9439;BME280;5176;42.622;25.386;2023-12-20T00:47:45;97534.00;;;3.43;95.44
9439;BME280;5176;42.622;25.386;2023-12-20T00:50:14;97538.97;;;3.49;94.83
9439;BME280;5176;42.622;25.386;2023-12-20T00:52:42;97535.56;;;3.47;93.99
9439;BME280;5176;42.622;25.386;2023-12-20T00:55:09;97532.91;;;3.50;93.21
9439;BME280;5176;42.622;25.386;2023-12-20T00:57:37;97526.03;;;3.49;92.20
9439;BME280;5176;42.622;25.386;2023-12-20T01:00:05;97535.38;;;3.53;92.13
9439;BME280;5176;42.622;25.386;2023-12-20T01:02:35;97531.94;;;3.53;92.42
9439;BME280;5176;42.622;25.386;2023-12-20T01:05:03;97519.84;;;3.53;92.90
9439;BME280;5176;42.622;25.386;2023-12-20T01:07:34;97510.78;;;3.39;93.20
9439;BME280;5176;42.622;25.386;2023-12-20T01:10:02;97514.19;;;3.41;94.47
9439;BME280;5176;42.622;25.386;2023-12-20T01:12:30;97514.41;;;3.33;95.03
9439;BME280;5176;42.622;25.386;2023-12-20T01:14:57;97503.25;;;3.31;96.26
9439;BME280;5176;42.622;25.386;2023-12-20T01:17:25;97490.50;;;3.25;96.01
9439;BME280;5176;42.622;25.386;2023-12-20T01:19:52;97498.84;;;3.35;96.09
9439;BME280;5176;42.622;25.386;2023-12-20T01:22:20;97491.91;;;3.35;95.66
9439;BME280;5176;42.622;25.386;2023-12-20T01:24:48;97494.41;;;3.38;95.18
9439;BME280;5176;42.622;25.386;2023-12-20T01:27:16;97497.78;;;3.40;94.17
9439;BME280;5176;42.622;25.386;2023-12-20T01:29:42;97484.22;;;3.32;93.79
9439;BME280;5176;42.622;25.386;2023-12-20T01:32:09;97487.59;;;3.34;93.91
9439;BME280;5176;42.622;25.386;2023-12-20T01:34:37;97477.41;;;3.30;95.30
9439;BME280;5176;42.622;25.386;2023-12-20T01:37:04;97472.94;;;3.35;96.31
9439;BME280;5176;42.622;25.386;2023-12-20T01:39:32;97464.63;;;3.23;96.98
9439;BME280;5176;42.622;25.386;2023-12-20T01:42:01;97469.81;;;3.23;97.56
9439;BME280;5176;42.622;25.386;2023-12-20T01:44:28;97464.69;;;3.22;97.54
9439;BME280;5176;42.622;25.386;2023-12-20T01:46:56;97455.31;;;3.18;97.08
9439;BME280;5176;42.622;25.386;2023-12-20T01:49:24;97458.94;;;3.12;97.00
9439;BME280;5176;42.622;25.386;2023-12-20T01:51:52;97454.84;;;3.05;95.72
9439;BME280;5176;42.622;25.386;2023-12-20T01:54:20;97447.97;;;3.04;96.67
9439;BME280;5176;42.622;25.386;2023-12-20T01:56:49;97443.75;;;3.02;97.39
9439;BME280;5176;42.622;25.386;2023-12-20T01:59:20;97434.47;;;2.94;98.29
9439;BME280;5176;42.622;25.386;2023-12-20T02:01:47;97430.06;;;2.96;99.19
9439;BME280;5176;42.622;25.386;2023-12-20T02:04:15;97435.31;;;2.95;100.00
9439;BME280;5176;42.622;25.386;2023-12-20T02:06:43;97424.97;;;2.93;99.54
9439;BME280;5176;42.622;25.386;2023-12-20T02:09:13;97422.25;;;2.98;99.71
9439;BME280;5176;42.622;25.386;2023-12-20T02:11:42;97417.38;;;2.89;98.87
9439;BME280;5176;42.622;25.386;2023-12-20T02:14:10;97409.59;;;2.89;98.02
9439;BME280;5176;42.622;25.386;2023-12-20T02:16:39;97416.53;;;2.88;97.77
9439;BME280;5176;42.622;25.386;2023-12-20T02:19:13;97411.53;;;2.81;97.54
9439;BME280;5176;42.622;25.386;2023-12-20T02:21:43;97412.59;;;2.75;98.43
9439;BME280;5176;42.622;25.386;2023-12-20T02:24:10;97395.59;;;2.66;99.13
9439;BME280;5176;42.622;25.386;2023-12-20T02:26:38;97399.91;;;2.66;99.32
9439;BME280;5176;42.622;25.386;2023-12-20T02:29:06;97396.59;;;2.62;99.62
9439;BME280;5176;42.622;25.386;2023-12-20T02:31:33;97391.19;;;2.70;99.68
9439;BME280;5176;42.622;25.386;2023-12-20T02:34:01;97385.47;;;2.59;99.46
9439;BME280;5176;42.622;25.386;2023-12-20T02:36:28;97388.59;;;2.40;98.76
9439;BME280;5176;42.622;25.386;2023-12-20T02:38:57;97390.53;;;2.32;99.38
9439;BME280;5176;42.622;25.386;2023-12-20T02:41:24;97383.13;;;2.22;100.00
9439;BME280;5176;42.622;25.386;2023-12-20T02:43:52;97394.19;;;2.25;100.00
9439;BME280;5176;42.622;25.386;2023-12-20T02:46:20;97384.88;;;2.19;100.00
9439;BME280;5176;42.622;25.386;2023-12-20T02:48:47;97387.44;;;2.21;100.00
9439;BME280;5176;42.622;25.386;2023-12-20T02:51:14;97376.03;;;2.28;100.00
9439;BME280;5176;42.622;25.386;2023-12-20T02:53:42;97369.00;;;2.32;100.00
9439;BME280;5176;42.622;25.386;2023-12-20T02:56:11;97368.94;;;2.35;100.00
9439;BME280;5176;42.622;25.386;2023-12-20T02:58:40;97368.94;;;2.35;100.00
9439;BME280;5176;42.622;25.386;2023-12-20T03:01:07;97365.69;;;2.28;99.92
9439;BME280;5176;42.622;25.386;2023-12-20T03:03:35;97361.25;;;2.32;100.00
9439;BME280;5176;42.622;25.386;2023-12-20T03:06:03;97357.75;;;2.34;100.00
9439;BME280;5176;42.622;25.386;2023-12-20T03:08:31;97357.75;;;2.33;100.00
9439;BME280;5176;42.622;25.386;2023-12-20T03:10:59;97362.03;;;2.34;100.00
9439;BME280;5176;42.622;25.386;2023-12-20T03:13:28;97357.75;;;2.34;100.00
9439;BME280;5176;42.622;25.386;2023-12-20T03:15:56;97359.28;;;2.40;100.00
9439;BME280;5176;42.622;25.386;2023-12-20T03:18:23;97355.78;;;2.42;100.00
9439;BME280;5176;42.622;25.386;2023-12-20T03:20:50;97348.63;;;2.51;100.00
9439;BME280;5176;42.622;25.386;2023-12-20T03:23:18;97355.34;;;2.56;100.00
9439;BME280;5176;42.622;25.386;2023-12-20T03:25:46;97341.66;;;2.53;100.00
9439;BME280;5176;42.622;25.386;2023-12-20T03:28:14;97342.59;;;2.50;100.00
9439;BME280;5176;42.622;25.386;2023-12-20T03:30:44;97354.78;;;2.46;100.00
9439;BME280;5176;42.622;25.386;2023-12-20T03:33:11;97338.50;;;2.43;100.00
9439;BME280;5176;42.622;25.386;2023-12-20T03:35:39;97301.44;;;2.13;99.47
9439;BME280;5176;42.622;25.386;2023-12-20T03:38:06;97337.72;;;2.39;98.81
9439;BME280;5176;42.622;25.386;2023-12-20T03:40:34;97329.28;;;2.34;98.97
9439;BME280;5176;42.622;25.386;2023-12-20T03:43:01;97326.66;;;2.36;99.11
9439;BME280;5176;42.622;25.386;2023-12-20T03:45:28;97329.28;;;2.34;98.91
9439;BME280;5176;42.622;25.386;2023-12-20T03:47:57;97330.94;;;2.37;98.47
9439;BME280;5176;42.622;25.386;2023-12-20T03:50:25;97324.00;;;2.37;97.76
9439;BME280;5176;42.622;25.386;2023-12-20T03:52:52;97321.66;;;2.30;98.30
9439;BME280;5176;42.622;25.386;2023-12-20T03:55:20;97324.28;;;2.28;98.67
9439;BME280;5176;42.622;25.386;2023-12-20T03:57:47;97325.09;;;2.30;100.00
9439;BME280;5176;42.622;25.386;2023-12-20T04:00:15;97317.50;;;2.24;100.00
9439;BME280;5176;42.622;25.386;2023-12-20T04:02:42;97312.59;;;2.15;100.00
9439;BME280;5176;42.622;25.386;2023-12-20T04:05:12;97315.53;;;2.03;100.00
9439;BME280;5176;42.622;25.386;2023-12-20T04:07:39;97308.19;;;1.89;100.00
9439;BME280;5176;42.622;25.386;2023-12-20T04:10:08;97306.41;;;1.91;100.00
9439;BME280;5176;42.622;25.386;2023-12-20T04:12:35;97306.66;;;1.82;100.00
9439;BME280;5176;42.622;25.386;2023-12-20T04:15:03;97310.38;;;1.72;100.00
9439;BME280;5176;42.622;25.386;2023-12-20T04:17:35;97312.97;;;1.72;100.00
9439;BME280;5176;42.622;25.386;2023-12-20T04:20:03;97310.22;;;1.78;100.00
9439;BME280;5176;42.622;25.386;2023-12-20T04:22:32;97310.16;;;1.81;100.00
9439;BME280;5176;42.622;25.386;2023-12-20T04:24:59;97292.75;;;1.86;100.00
9439;BME280;5176;42.622;25.386;2023-12-20T04:27:27;97297.78;;;1.90;100.00
9439;BME280;5176;42.622;25.386;2023-12-20T04:29:55;97300.28;;;1.94;100.00
9439;BME280;5176;42.622;25.386;2023-12-20T04:32:22;97294.25;;;1.95;100.00
9439;BME280;5176;42.622;25.386;2023-12-20T04:34:50;97283.13;;;1.91;100.00
9439;BME280;5176;42.622;25.386;2023-12-20T04:37:18;97289.97;;;1.92;100.00
9439;BME280;5176;42.622;25.386;2023-12-20T04:39:47;97301.91;;;1.98;100.00
9439;BME280;5176;42.622;25.386;2023-12-20T04:42:14;97300.09;;;2.01;100.00
9439;BME280;5176;42.622;25.386;2023-12-20T04:44:41;97309.44;;;2.05;100.00
9439;BME280;5176;42.622;25.386;2023-12-20T04:47:09;97317.13;;;2.07;100.00
9439;BME280;5176;42.622;25.386;2023-12-20T04:49:37;97311.09;;;2.08;100.00
9439;BME280;5176;42.622;25.386;2023-12-20T04:52:04;97317.91;;;2.10;100.00
9439;BME280;5176;42.622;25.386;2023-12-20T04:54:31;97315.31;;;2.10;100.00
9439;BME280;5176;42.622;25.386;2023-12-20T04:57:00;97315.22;;;2.13;100.00
9439;BME280;5176;42.622;25.386;2023-12-20T04:59:27;97312.56;;;2.16;100.00
9439;BME280;5176;42.622;25.386;2023-12-20T05:01:55;97307.47;;;2.13;100.00
9439;BME280;5176;42.622;25.386;2023-12-20T05:04:23;97293.50;;;1.89;100.00
9439;BME280;5176;42.622;25.386;2023-12-20T05:06:50;97299.97;;;2.04;100.00
9439;BME280;5176;42.622;25.386;2023-12-20T05:09:18;97292.34;;;2.00;100.00
9439;BME280;5176;42.622;25.386;2023-12-20T05:11:45;97289.56;;;2.07;100.00
9439;BME280;5176;42.622;25.386;2023-12-20T05:14:14;97291.19;;;2.10;100.00
9439;BME280;5176;42.622;25.386;2023-12-20T05:16:41;97274.28;;;1.98;100.00
9439;BME280;5176;42.622;25.386;2023-12-20T05:19:08;97278.91;;;1.88;100.00
9439;BME280;5176;42.622;25.386;2023-12-20T05:21:35;97278.97;;;1.85;100.00
9439;BME280;5176;42.622;25.386;2023-12-20T05:24:03;97286.00;;;1.80;100.00
9439;BME280;5176;42.622;25.386;2023-12-20T05:26:31;97284.25;;;1.82;100.00
9439;BME280;5176;42.622;25.386;2023-12-20T05:28:58;97282.34;;;1.89;100.00
9439;BME280;5176;42.622;25.386;2023-12-20T05:31:26;97276.31;;;1.88;100.00
9439;BME280;5176;42.622;25.386;2023-12-20T05:33:54;97277.84;;;1.96;100.00
9439;BME280;5176;42.622;25.386;2023-12-20T05:36:21;97277.00;;;1.95;100.00
9439;BME280;5176;42.622;25.386;2023-12-20T05:38:48;97270.19;;;1.91;100.00
9439;BME280;5176;42.622;25.386;2023-12-20T05:41:16;97264.13;;;1.92;100.00
9439;BME280;5176;42.622;25.386;2023-12-20T05:43:43;97263.41;;;1.88;99.01
9439;BME280;5176;42.622;25.386;2023-12-20T05:46:11;97259.19;;;1.84;98.63
9439;BME280;5176;42.622;25.386;2023-12-20T05:48:39;97256.72;;;1.81;99.16
9439;BME280;5176;42.622;25.386;2023-12-20T05:51:07;97256.03;;;1.75;98.88
9439;BME280;5176;42.622;25.386;2023-12-20T05:53:34;97256.00;;;1.76;99.20
9439;BME280;5176;42.622;25.386;2023-12-20T05:56:02;97248.22;;;1.76;99.27
9439;BME280;5176;42.622;25.386;2023-12-20T05:58:29;97258.47;;;1.79;98.89
9439;BME280;5176;42.622;25.386;2023-12-20T06:00:56;97257.69;;;1.77;99.25
9439;BME280;5176;42.622;25.386;2023-12-20T06:03:24;97261.91;;;1.80;99.40
9439;BME280;5176;42.622;25.386;2023-12-20T06:05:52;97262.00;;;1.77;99.40
9439;BME280;5176;42.622;25.386;2023-12-20T06:08:19;97255.88;;;1.79;100.00
9439;BME280;5176;42.622;25.386;2023-12-20T06:10:47;97236.16;;;1.77;100.00
9439;BME280;5176;42.622;25.386;2023-12-20T06:13:14;97251.31;;;1.89;100.00
9439;BME280;5176;42.622;25.386;2023-12-20T06:15:41;97253.75;;;1.94;100.00
9439;BME280;5176;42.622;25.386;2023-12-20T06:18:08;97258.72;;;2.01;99.79
9439;BME280;5176;42.622;25.386;2023-12-20T06:20:36;97254.28;;;2.05;99.34
9439;BME280;5176;42.622;25.386;2023-12-20T06:23:05;97247.25;;;2.10;98.50
9439;BME280;5176;42.622;25.386;2023-12-20T06:25:32;97240.88;;;2.20;98.96
9439;BME280;5176;42.622;25.386;2023-12-20T06:27:59;97237.06;;;2.32;98.83
9439;BME280;5176;42.622;25.386;2023-12-20T06:30:27;97230.09;;;2.35;98.22
9439;BME280;5176;42.622;25.386;2023-12-20T06:32:54;97249.94;;;2.35;98.04
9439;BME280;5176;42.622;25.386;2023-12-20T06:35:23;97247.06;;;2.44;97.81
9439;BME280;5176;42.622;25.386;2023-12-20T06:37:50;97244.13;;;2.55;97.04
9439;BME280;5176;42.622;25.386;2023-12-20T06:40:20;97241.19;;;2.65;95.98
9439;BME280;5176;42.622;25.386;2023-12-20T06:42:47;97250.44;;;2.72;95.62
9439;BME280;5176;42.622;25.386;2023-12-20T06:45:14;97241.50;;;2.83;95.88
9439;BME280;5176;42.622;25.386;2023-12-20T06:47:42;97228.88;;;2.98;94.78
9439;BME280;5176;42.622;25.386;2023-12-20T06:50:09;97229.09;;;3.17;95.12
9439;BME280;5176;42.622;25.386;2023-12-20T06:52:36;97233.09;;;3.26;94.87
9439;BME280;5176;42.622;25.386;2023-12-20T06:55:05;97228.97;;;3.45;94.61
9439;BME280;5176;42.622;25.386;2023-12-20T06:57:33;97228.88;;;3.72;93.49
9439;BME280;5176;42.622;25.386;2023-12-20T07:00:02;97220.50;;;3.89;92.17
9439;BME280;5176;42.622;25.386;2023-12-20T07:02:29;97230.22;;;4.05;91.63
9439;BME280;5176;42.622;25.386;2023-12-20T07:04:57;97227.63;;;4.27;91.28
9439;BME280;5176;42.622;25.386;2023-12-20T07:07:24;97230.25;;;4.49;90.15
9439;BME280;5176;42.622;25.386;2023-12-20T07:09:52;97216.81;;;4.60;87.56
9439;BME280;5176;42.622;25.386;2023-12-20T07:12:19;97221.94;;;4.83;86.19
9439;BME280;5176;42.622;25.386;2023-12-20T07:14:48;97218.59;;;5.02;86.30
9439;BME280;5176;42.622;25.386;2023-12-20T07:17:15;97218.78;;;5.17;85.80
9439;BME280;5176;42.622;25.386;2023-12-20T07:19:42;97219.47;;;5.21;86.62
9439;BME280;5176;42.622;25.386;2023-12-20T07:22:09;97214.91;;;5.46;85.71
9439;BME280;5176;42.622;25.386;2023-12-20T07:24:37;97207.03;;;5.68;84.39
9439;BME280;5176;42.622;25.386;2023-12-20T07:27:04;97206.97;;;5.89;83.20
9439;BME280;5176;42.622;25.386;2023-12-20T07:29:32;97204.53;;;6.05;82.30
9439;BME280;5176;42.622;25.386;2023-12-20T07:32:00;97204.03;;;6.15;81.95
9439;BME280;5176;42.622;25.386;2023-12-20T07:34:28;97200.28;;;6.21;80.73
9439;BME280;5176;42.622;25.386;2023-12-20T07:36:55;97210.59;;;6.41;79.99
9439;BME280;5176;42.622;25.386;2023-12-20T07:39:22;97206.94;;;6.45;79.45
9439;BME280;5176;42.622;25.386;2023-12-20T07:41:49;97196.78;;;6.58;79.12
9439;BME280;5176;42.622;25.386;2023-12-20T07:44:17;97200.56;;;6.70;79.41
9439;BME280;5176;42.622;25.386;2023-12-20T07:46:44;97195.41;;;6.68;79.05
9439;BME280;5176;42.622;25.386;2023-12-20T07:49:13;97193.97;;;6.80;79.21
9439;BME280;5176;42.622;25.386;2023-12-20T07:51:40;97193.53;;;6.89;76.88
9439;BME280;5176;42.622;25.386;2023-12-20T07:54:07;97195.28;;;7.06;76.78
9439;BME280;5176;42.622;25.386;2023-12-20T07:56:35;97200.53;;;7.22;76.13
9439;BME280;5176;42.622;25.386;2023-12-20T07:59:02;97189.41;;;7.35;75.74
9439;BME280;5176;42.622;25.386;2023-12-20T08:01:29;97194.81;;;7.48;75.49
9439;BME280;5176;42.622;25.386;2023-12-20T08:03:56;97196.72;;;7.62;75.14
9439;BME280;5176;42.622;25.386;2023-12-20T08:06:25;97198.13;;;7.85;73.81
9439;BME280;5176;42.622;25.386;2023-12-20T08:08:52;97185.06;;;8.01;73.15
9439;BME280;5176;42.622;25.386;2023-12-20T08:11:19;97198.03;;;8.02;73.07
9439;BME280;5176;42.622;25.386;2023-12-20T08:13:47;97186.19;;;8.12;72.53
9439;BME280;5176;42.622;25.386;2023-12-20T08:16:14;97188.28;;;8.22;73.13
9439;BME280;5176;42.622;25.386;2023-12-20T08:18:43;97190.66;;;8.42;71.88
9439;BME280;5176;42.622;25.386;2023-12-20T08:21:10;97182.63;;;8.61;70.95
9439;BME280;5176;42.622;25.386;2023-12-20T08:23:39;97179.06;;;8.78;70.97
9439;BME280;5176;42.622;25.386;2023-12-20T08:26:06;97174.66;;;9.08;70.27
9439;BME280;5176;42.622;25.386;2023-12-20T08:28:34;97157.78;;;9.28;69.50
9439;BME280;5176;42.622;25.386;2023-12-20T08:31:01;97159.19;;;9.48;68.22
9439;BME280;5176;42.622;25.386;2023-12-20T08:33:28;97157.25;;;9.66;67.38
9439;BME280;5176;42.622;25.386;2023-12-20T08:35:56;97153.19;;;9.89;66.80
9439;BME280;5176;42.622;25.386;2023-12-20T08:38:23;97150.66;;;10.01;66.58
9439;BME280;5176;42.622;25.386;2023-12-20T08:40:52;97139.63;;;10.10;65.27
9439;BME280;5176;42.622;25.386;2023-12-20T08:43:19;97132.47;;;10.27;63.53
9439;BME280;5176;42.622;25.386;2023-12-20T08:45:46;97127.41;;;10.38;62.03
9439;BME280;5176;42.622;25.386;2023-12-20T08:48:14;97121.81;;;10.57;62.13
9439;BME280;5176;42.622;25.386;2023-12-20T08:50:41;97122.44;;;10.60;60.78
9439;BME280;5176;42.622;25.386;2023-12-20T08:53:08;97117.06;;;10.62;61.07
9439;BME280;5176;42.622;25.386;2023-12-20T08:55:36;97115.72;;;10.69;61.34
9439;BME280;5176;42.622;25.386;2023-12-20T08:58:04;97108.19;;;10.64;61.38
9439;BME280;5176;42.622;25.386;2023-12-20T09:00:33;97107.38;;;10.89;61.44
9439;BME280;5176;42.622;25.386;2023-12-20T09:03:01;97104.69;;;11.04;60.80
9439;BME280;5176;42.622;25.386;2023-12-20T09:05:28;97098.91;;;11.11;60.11
9439;BME280;5176;42.622;25.386;2023-12-20T09:07:54;97095.53;;;11.35;59.48
9439;BME280;5176;42.622;25.386;2023-12-20T09:10:21;97088.59;;;11.59;57.39
9439;BME280;5176;42.622;25.386;2023-12-20T09:12:49;97073.66;;;11.72;57.26
9439;BME280;5176;42.622;25.386;2023-12-20T09:15:18;97062.16;;;11.99;56.44
9439;BME280;5176;42.622;25.386;2023-12-20T09:17:46;97060.84;;;12.17;56.75
9439;BME280;5176;42.622;25.386;2023-12-20T09:20:13;97049.19;;;12.33;55.91
9439;BME280;5176;42.622;25.386;2023-12-20T09:22:41;97048.38;;;12.43;55.98
9439;BME280;5176;42.622;25.386;2023-12-20T09:25:10;97040.19;;;12.59;55.98
9439;BME280;5176;42.622;25.386;2023-12-20T09:27:38;97046.50;;;12.21;55.50
9439;BME280;5176;42.622;25.386;2023-12-20T09:30:06;97037.09;;;12.30;55.74
9439;BME280;5176;42.622;25.386;2023-12-20T09:32:35;97033.22;;;12.47;54.73
9439;BME280;5176;42.622;25.386;2023-12-20T09:35:03;97024.19;;;12.62;55.04
9439;BME280;5176;42.622;25.386;2023-12-20T09:37:31;97023.00;;;12.66;56.13
9439;BME280;5176;42.622;25.386;2023-12-20T09:39:59;97022.41;;;12.74;54.89
9439;BME280;5176;42.622;25.386;2023-12-20T09:42:36;97020.13;;;12.69;54.43
9439;BME280;5176;42.622;25.386;2023-12-20T09:45:08;97020.16;;;12.80;54.07
9439;BME280;5176;42.622;25.386;2023-12-20T09:47:37;97012.84;;;12.73;52.98
9439;BME280;5176;42.622;25.386;2023-12-20T09:50:05;97005.47;;;12.89;53.30
9439;BME280;5176;42.622;25.386;2023-12-20T09:52:33;96963.84;;;12.83;52.12
9439;BME280;5176;42.622;25.386;2023-12-20T09:55:01;96984.09;;;13.05;52.50
9439;BME280;5176;42.622;25.386;2023-12-20T09:57:31;96979.16;;;13.00;52.45
9439;BME280;5176;42.622;25.386;2023-12-20T09:59:58;96975.81;;;12.87;51.84
9439;BME280;5176;42.622;25.386;2023-12-20T10:02:26;96974.75;;;12.78;52.55
9439;BME280;5176;42.622;25.386;2023-12-20T10:04:55;96968.47;;;12.57;52.28
9439;BME280;5176;42.622;25.386;2023-12-20T10:07:22;96965.06;;;12.33;52.39
9439;BME280;5176;42.622;25.386;2023-12-20T10:09:51;96963.88;;;12.25;54.55
9439;BME280;5176;42.622;25.386;2023-12-20T10:12:21;96959.56;;;12.24;54.49
9439;BME280;5176;42.622;25.386;2023-12-20T10:14:48;96949.88;;;12.25;54.58
9439;BME280;5176;42.622;25.386;2023-12-20T10:17:16;96948.09;;;12.25;55.89
9439;BME280;5176;42.622;25.386;2023-12-20T10:19:44;96949.25;;;12.21;53.95
9439;BME280;5176;42.622;25.386;2023-12-20T10:22:12;96947.97;;;12.27;53.78
9439;BME280;5176;42.622;25.386;2023-12-20T10:24:40;96943.34;;;12.31;54.34
9439;BME280;5176;42.622;25.386;2023-12-20T10:27:08;96940.59;;;12.32;52.85
9439;BME280;5176;42.622;25.386;2023-12-20T10:29:36;96923.81;;;12.22;53.50
9439;BME280;5176;42.622;25.386;2023-12-20T10:32:23;96927.78;;;12.27;52.89
9439;BME280;5176;42.622;25.386;2023-12-20T10:34:51;96917.28;;;12.27;53.13
9439;BME280;5176;42.622;25.386;2023-12-20T10:37:20;96909.72;;;12.12;53.07
9439;BME280;5176;42.622;25.386;2023-12-20T10:39:50;96903.00;;;12.08;53.50
9439;BME280;5176;42.622;25.386;2023-12-20T10:42:20;96905.63;;;12.08;53.10
9439;BME280;5176;42.622;25.386;2023-12-20T10:44:49;96899.13;;;11.89;53.49
9439;BME280;5176;42.622;25.386;2023-12-20T10:47:16;96904.75;;;11.96;54.42
9439;BME280;5176;42.622;25.386;2023-12-20T10:49:45;96907.75;;;12.03;53.60
9439;BME280;5176;42.622;25.386;2023-12-20T10:52:13;96904.81;;;12.07;53.77
9439;BME280;5176;42.622;25.386;2023-12-20T10:54:41;96905.78;;;12.17;55.59
9439;BME280;5176;42.622;25.386;2023-12-20T10:57:09;96899.91;;;12.14;53.91
9439;BME280;5176;42.622;25.386;2023-12-20T10:59:37;96894.03;;;12.10;54.20
9439;BME280;5176;42.622;25.386;2023-12-20T11:02:05;96898.47;;;11.98;55.11
9439;BME280;5176;42.622;25.386;2023-12-20T11:04:37;96891.22;;;12.13;55.31
9439;BME280;5176;42.622;25.386;2023-12-20T11:07:17;96885.53;;;12.31;54.24
9439;BME280;5176;42.622;25.386;2023-12-20T11:09:56;96878.84;;;12.49;54.55
9439;BME280;5176;42.622;25.386;2023-12-20T11:12:34;96889.00;;;12.76;53.01
9439;BME280;5176;42.622;25.386;2023-12-20T11:15:05;96881.22;;;12.97;53.16
9439;BME280;5176;42.622;25.386;2023-12-20T11:17:33;96869.50;;;13.12;52.21
9439;BME280;5176;42.622;25.386;2023-12-20T11:20:05;96860.63;;;13.13;50.61
9439;BME280;5176;42.622;25.386;2023-12-20T11:22:34;96870.56;;;13.21;51.92
9439;BME280;5176;42.622;25.386;2023-12-20T11:25:06;96870.91;;;13.16;51.13
9439;BME280;5176;42.622;25.386;2023-12-20T11:27:35;96830.25;;;13.09;50.91
9439;BME280;5176;42.622;25.386;2023-12-20T11:30:04;96863.59;;;13.20;50.96
9439;BME280;5176;42.622;25.386;2023-12-20T11:32:34;96858.59;;;13.28;51.19
9439;BME280;5176;42.622;25.386;2023-12-20T11:35:17;96845.28;;;13.29;51.12
9439;BME280;5176;42.622;25.386;2023-12-20T11:37:46;96839.88;;;13.42;50.59
9439;BME280;5176;42.622;25.386;2023-12-20T11:40:16;96832.56;;;13.46;50.28
9439;BME280;5176;42.622;25.386;2023-12-20T11:42:45;96826.47;;;13.45;50.06
9439;BME280;5176;42.622;25.386;2023-12-20T11:45:16;96823.22;;;13.53;50.26
9439;BME280;5176;42.622;25.386;2023-12-20T11:47:46;96819.81;;;13.62;49.42
9439;BME280;5176;42.622;25.386;2023-12-20T11:50:15;96810.84;;;13.65;49.46
9439;BME280;5176;42.622;25.386;2023-12-20T11:52:43;96792.91;;;13.58;49.17
9439;BME280;5176;42.622;25.386;2023-12-20T11:55:10;96802.81;;;13.66;49.54
9439;BME280;5176;42.622;25.386;2023-12-20T11:57:39;96789.81;;;13.74;49.57
9439;BME280;5176;42.622;25.386;2023-12-20T12:00:07;96799.16;;;13.78;49.72
9439;BME280;5176;42.622;25.386;2023-12-20T12:02:35;96785.78;;;13.91;50.12
9439;BME280;5176;42.622;25.386;2023-12-20T12:05:02;96775.97;;;14.03;49.64
9439;BME280;5176;42.622;25.386;2023-12-20T12:07:31;96766.41;;;14.02;49.00
9439;BME280;5176;42.622;25.386;2023-12-20T12:09:58;96765.34;;;14.04;49.49
9439;BME280;5176;42.622;25.386;2023-12-20T12:12:25;96766.41;;;14.02;49.64
9439;BME280;5176;42.622;25.386;2023-12-20T12:14:55;96763.78;;;14.02;48.82
9439;BME280;5176;42.622;25.386;2023-12-20T12:17:23;96760.44;;;14.00;49.12
9439;BME280;5176;42.622;25.386;2023-12-20T12:19:51;96753.09;;;14.03;49.67
9439;BME280;5176;42.622;25.386;2023-12-20T12:22:28;96750.22;;;14.06;49.56
9439;BME280;5176;42.622;25.386;2023-12-20T12:24:59;96745.78;;;14.07;49.33
9439;BME280;5176;42.622;25.386;2023-12-20T12:27:35;96736.47;;;14.03;49.79
9439;BME280;5176;42.622;25.386;2023-12-20T12:30:07;96734.66;;;14.03;50.33
9439;BME280;5176;42.622;25.386;2023-12-20T12:32:35;96745.41;;;13.90;50.16
9439;BME280;5176;42.622;25.386;2023-12-20T12:35:03;96738.59;;;13.88;51.06
9439;BME280;5176;42.622;25.386;2023-12-20T12:37:34;96733.41;;;13.77;50.66
9439;BME280;5176;42.622;25.386;2023-12-20T12:40:01;96735.22;;;13.76;51.17
9439;BME280;5176;42.622;25.386;2023-12-20T12:42:28;96726.34;;;13.77;51.06
9439;BME280;5176;42.622;25.386;2023-12-20T12:44:56;96727.19;;;13.78;51.39
9439;BME280;5176;42.622;25.386;2023-12-20T12:47:24;96716.91;;;13.75;51.32
9439;BME280;5176;42.622;25.386;2023-12-20T12:49:52;96723.53;;;13.69;52.15
9439;BME280;5176;42.622;25.386;2023-12-20T12:52:19;96710.22;;;13.71;51.83
9439;BME280;5176;42.622;25.386;2023-12-20T12:54:47;96713.25;;;13.66;52.03
9439;BME280;5176;42.622;25.386;2023-12-20T12:57:15;96704.25;;;13.69;52.40
9439;BME280;5176;42.622;25.386;2023-12-20T12:59:43;96712.16;;;13.69;53.21
9439;BME280;5176;42.622;25.386;2023-12-20T13:02:11;96709.13;;;13.73;52.83
9439;BME280;5176;42.622;25.386;2023-12-20T13:04:40;96710.09;;;13.72;53.26
9439;BME280;5176;42.622;25.386;2023-12-20T13:07:08;96712.81;;;13.61;53.21
9439;BME280;5176;42.622;25.386;2023-12-20T13:09:36;96705.19;;;13.58;53.89
9439;BME280;5176;42.622;25.386;2023-12-20T13:12:04;96705.38;;;13.45;54.10
9439;BME280;5176;42.622;25.386;2023-12-20T13:14:33;96699.28;;;13.45;54.37
9439;BME280;5176;42.622;25.386;2023-12-20T13:17:03;96691.78;;;13.50;54.80
9439;BME280;5176;42.622;25.386;2023-12-20T13:19:31;96689.44;;;13.47;54.33